Time;durP1;ratioP1;P1;durP2;ratioP2;P2;SDS_P1;SDS_P2;PMS_P1;PMS_P2;Temp;Humidity;BMP_temperature;BMP_pressure;BME280_temperature;BME280_humidity;BME280_pressure;Samples;Min_cycle;Max_cycle;Signal;HPM_P1;HPM_P2
2023/12/16 00:00:52;;;;;;;8.82;2.22;;;8.10;99.90;;;;;;5004453;28;20049;-61
2023/12/16 00:03:18;;;;;;;7.45;2.17;;;8.10;99.90;;;;;;5003540;28;20042;-62
2023/12/16 00:05:43;;;;;;;10.07;2.20;;;8.10;99.90;;;;;;4986376;28;20095;-61
2023/12/16 00:08:11;;;;;;;9.00;2.17;;;8.10;99.90;;;;;;5002675;28;20099;-61
2023/12/16 00:10:37;;;;;;;7.63;2.25;;;8.00;99.90;;;;;;5005123;28;20073;-61
2023/12/16 00:13:02;;;;;;;6.75;2.03;;;8.00;99.90;;;;;;5003389;28;20096;-62
2023/12/16 00:15:28;;;;;;;8.35;2.13;;;8.00;99.90;;;;;;5004054;28;20044;-61
2023/12/16 00:17:54;;;;;;;13.75;2.20;;;8.00;99.90;;;;;;5001912;28;20251;-61
2023/12/16 00:20:20;;;;;;;7.65;2.20;;;8.00;99.90;;;;;;4999373;28;20038;-61
2023/12/16 00:22:46;;;;;;;10.73;2.55;;;8.00;99.90;;;;;;4999840;28;20081;-61
2023/12/16 00:25:12;;;;;;;7.97;2.13;;;7.90;99.90;;;;;;4981038;28;20077;-61
2023/12/16 00:27:37;;;;;;;12.50;2.40;;;8.00;99.90;;;;;;4997701;28;20050;-61
2023/12/16 00:30:07;;;;;;;11.25;2.97;;;7.90;99.90;;;;;;4998100;28;20510;-61
2023/12/16 00:32:32;;;;;;;11.13;2.05;;;7.90;99.90;;;;;;4999618;28;20038;-62
2023/12/16 00:34:58;;;;;;;10.20;2.13;;;7.90;99.90;;;;;;4985945;28;20111;-61
2023/12/16 00:37:24;;;;;;;11.15;2.47;;;7.90;99.90;;;;;;5001661;28;20491;-61
2023/12/16 00:39:49;;;;;;;15.07;2.38;;;7.90;99.90;;;;;;5003469;28;20038;-61
2023/12/16 00:42:15;;;;;;;14.52;2.58;;;7.80;99.90;;;;;;4994991;28;20080;-61
2023/12/16 00:44:41;;;;;;;10.02;2.35;;;7.80;99.90;;;;;;5009846;28;20098;-61
2023/12/16 00:47:06;;;;;;;12.88;2.33;;;7.80;99.90;;;;;;5005992;28;20088;-61
2023/12/16 00:49:32;;;;;;;9.75;1.80;;;7.70;99.90;;;;;;4998784;28;20045;-61
2023/12/16 00:51:58;;;;;;;10.50;2.40;;;7.70;99.90;;;;;;5001714;28;20107;-61
2023/12/16 00:54:26;;;;;;;8.15;1.73;;;7.70;99.90;;;;;;5001918;28;20432;-61
2023/12/16 00:56:52;;;;;;;15.90;3.92;;;7.70;99.90;;;;;;4997203;28;20065;-62
2023/12/16 00:59:17;;;;;;;12.98;2.20;;;7.70;99.90;;;;;;4968254;28;20062;-61
2023/12/16 01:01:43;;;;;;;11.02;2.55;;;7.60;99.90;;;;;;4982959;28;20050;-62
2023/12/16 01:04:09;;;;;;;7.63;1.80;;;7.70;99.90;;;;;;5005204;28;20148;-62
2023/12/16 01:06:35;;;;;;;10.98;2.38;;;7.70;99.90;;;;;;5004643;28;20042;-62
2023/12/16 01:09:01;;;;;;;12.07;2.45;;;7.60;99.90;;;;;;5008118;28;20049;-61
2023/12/16 01:11:26;;;;;;;9.23;2.10;;;7.60;99.90;;;;;;5004275;28;20152;-62
2023/12/16 01:13:52;;;;;;;8.82;1.77;;;7.60;99.90;;;;;;5005054;28;20045;-61
2023/12/16 01:16:18;;;;;;;11.20;2.08;;;7.60;99.90;;;;;;4985855;28;20077;-61
2023/12/16 01:18:43;;;;;;;7.10;1.85;;;7.60;99.90;;;;;;5004761;28;20042;-61
2023/12/16 01:21:09;;;;;;;9.93;2.00;;;7.60;99.90;;;;;;5000250;28;20644;-61
2023/12/16 01:23:36;;;;;;;7.95;1.95;;;7.50;99.90;;;;;;4971789;28;20034;-61
2023/12/16 01:26:05;;;;;;;10.77;1.90;;;7.50;99.90;;;;;;5001438;28;20058;-61
2023/12/16 01:28:31;;;;;;;9.40;2.20;;;7.50;99.90;;;;;;4986261;28;20058;-61
2023/12/16 01:30:57;;;;;;;9.90;1.98;;;7.50;99.90;;;;;;5001722;28;20133;-61
2023/12/16 01:33:23;;;;;;;14.30;2.33;;;7.50;99.90;;;;;;5005309;28;20057;-61
2023/12/16 01:35:49;;;;;;;9.32;1.88;;;7.50;99.90;;;;;;5007589;28;20465;-61
2023/12/16 01:38:15;;;;;;;13.05;1.85;;;7.50;99.90;;;;;;5003668;28;20116;-62
2023/12/16 01:40:40;;;;;;;10.38;2.10;;;7.50;99.90;;;;;;5005025;28;20042;-61
2023/12/16 01:43:08;;;;;;;13.05;2.38;;;7.50;99.90;;;;;;5004076;28;20069;-61
2023/12/16 01:45:34;;;;;;;11.13;2.15;;;7.50;99.90;;;;;;4988038;28;20045;-61
2023/12/16 01:48:02;;;;;;;8.80;1.63;;;7.40;99.90;;;;;;4989042;28;20057;-62
2023/12/16 01:50:29;;;;;;;10.38;2.30;;;7.40;99.90;;;;;;4989746;28;20060;-61
2023/12/16 01:52:56;;;;;;;12.00;2.55;;;7.40;99.90;;;;;;5005820;28;20508;-62
2023/12/16 01:55:22;;;;;;;8.32;2.00;;;7.40;99.90;;;;;;5003183;28;20081;-62
2023/12/16 01:57:48;;;;;;;9.65;2.08;;;7.40;99.90;;;;;;4986985;28;20069;-61
2023/12/16 02:00:14;;;;;;;9.35;2.40;;;7.40;99.90;;;;;;4999899;28;20065;-61
2023/12/16 02:02:41;;;;;;;10.82;2.30;;;7.40;99.90;;;;;;4989962;28;20111;-61
2023/12/16 02:05:09;;;;;;;7.97;1.83;;;7.40;99.90;;;;;;4986913;28;20050;-61
2023/12/16 02:07:34;;;;;;;11.13;2.50;;;7.30;99.90;;;;;;5001554;28;20145;-61
2023/12/16 02:10:01;;;;;;;14.40;2.20;;;7.40;99.90;;;;;;5003668;28;20069;-61
2023/12/16 02:12:28;;;;;;;11.90;2.17;;;7.40;99.90;;;;;;4988380;28;20116;-62
2023/12/16 02:14:53;;;;;;;10.55;2.20;;;7.40;99.90;;;;;;4982373;28;20125;-61
2023/12/16 02:17:19;;;;;;;10.75;2.22;;;7.40;99.90;;;;;;5020046;28;20034;-61
2023/12/16 02:19:47;;;;;;;12.82;3.00;;;7.30;99.90;;;;;;5001522;28;20045;-62
2023/12/16 02:22:13;;;;;;;8.32;2.30;;;7.30;99.90;;;;;;4999147;28;20100;-62
2023/12/16 02:24:41;;;;;;;11.90;2.50;;;7.30;99.90;;;;;;4984691;28;20488;-61
2023/12/16 02:27:08;;;;;;;11.65;2.83;;;7.30;99.90;;;;;;5004362;28;20077;-61
2023/12/16 02:29:33;;;;;;;12.30;2.80;;;7.30;99.90;;;;;;4998762;28;20046;-62
2023/12/16 02:32:00;;;;;;;10.55;2.28;;;7.40;99.90;;;;;;5002405;28;20059;-62
2023/12/16 02:34:26;;;;;;;11.27;2.70;;;7.30;99.90;;;;;;5005023;28;20048;-61
2023/12/16 02:36:52;;;;;;;13.55;2.58;;;7.40;99.90;;;;;;5003450;28;20041;-61
2023/12/16 02:39:18;;;;;;;9.10;2.13;;;7.30;99.90;;;;;;4999508;28;20672;-62
2023/12/16 02:41:44;;;;;;;14.90;2.55;;;7.40;99.90;;;;;;4982200;28;20096;-61
2023/12/16 02:44:10;;;;;;;15.73;3.33;;;7.40;99.90;;;;;;5004656;28;20052;-61
2023/12/16 02:46:35;;;;;;;10.77;2.30;;;7.40;99.90;;;;;;5002851;28;20044;-62
2023/12/16 02:49:01;;;;;;;10.65;2.22;;;7.40;99.90;;;;;;5002650;28;20072;-62
2023/12/16 02:51:29;;;;;;;13.80;2.65;;;7.30;99.90;;;;;;5001356;28;20199;-62
2023/12/16 02:53:56;;;;;;;10.93;2.30;;;7.30;99.90;;;;;;5002200;28;20037;-61
2023/12/16 02:56:21;;;;;;;14.15;3.20;;;7.30;99.90;;;;;;4982067;28;20607;-61
2023/12/16 02:58:48;;;;;;;18.00;3.13;;;7.40;99.90;;;;;;5001417;28;20048;-61
2023/12/16 03:01:15;;;;;;;18.42;3.35;;;7.40;99.90;;;;;;4986883;28;20402;-61
2023/12/16 03:03:40;;;;;;;15.38;3.70;;;7.40;99.90;;;;;;5001190;28;20515;-61
2023/12/16 03:06:07;;;;;;;12.00;2.53;;;7.40;99.90;;;;;;4987501;28;20048;-61
2023/12/16 03:08:34;;;;;;;14.50;2.58;;;7.40;99.90;;;;;;5001497;28;20053;-62
2023/12/16 03:11:01;;;;;;;18.70;2.90;;;7.40;99.90;;;;;;4985521;28;20038;-61
2023/12/16 03:13:27;;;;;;;15.52;3.08;;;7.40;99.90;;;;;;4995811;28;20072;-61
2023/12/16 03:15:52;;;;;;;16.60;4.03;;;7.40;99.90;;;;;;4996951;28;20074;-62
2023/12/16 03:18:18;;;;;;;16.02;2.97;;;7.40;99.90;;;;;;5000927;28;20121;-61
2023/12/16 03:20:44;;;;;;;10.50;2.88;;;7.40;99.90;;;;;;4970189;28;20124;-61
2023/12/16 03:23:09;;;;;;;12.55;2.25;;;7.40;99.90;;;;;;5006442;28;20045;-62
2023/12/16 03:25:37;;;;;;;22.25;3.92;;;7.40;99.90;;;;;;5003529;28;20493;-61
2023/12/16 03:28:04;;;;;;;12.93;3.10;;;7.40;99.90;;;;;;5002870;28;20477;-61
2023/12/16 03:30:29;;;;;;;14.27;2.88;;;7.40;99.90;;;;;;4984942;28;20038;-62
2023/12/16 03:32:55;;;;;;;15.50;3.03;;;7.40;99.90;;;;;;4984891;28;20052;-61
2023/12/16 03:35:21;;;;;;;13.10;3.25;;;7.40;99.90;;;;;;4999763;28;20136;-61
2023/12/16 03:37:47;;;;;;;20.65;3.58;;;7.40;99.90;;;;;;5000250;28;20038;-61
2023/12/16 03:40:13;;;;;;;21.45;3.08;;;7.30;99.90;;;;;;5001380;28;20097;-61
2023/12/16 03:42:39;;;;;;;16.70;3.72;;;7.40;99.90;;;;;;5002872;28;20603;-60
2023/12/16 03:45:05;;;;;;;12.38;2.72;;;7.40;99.90;;;;;;5001785;28;20404;-61
2023/12/16 03:47:32;;;;;;;18.67;3.80;;;7.30;99.90;;;;;;5005945;28;20044;-61
2023/12/16 03:49:58;;;;;;;10.88;2.85;;;7.40;99.90;;;;;;4985195;28;20073;-61
2023/12/16 03:52:24;;;;;;;14.68;3.53;;;7.40;99.90;;;;;;5001730;28;20057;-61
2023/12/16 03:54:49;;;;;;;18.02;3.33;;;7.30;99.90;;;;;;5001365;28;20497;-59
2023/12/16 03:57:15;;;;;;;18.60;3.08;;;7.30;99.90;;;;;;5001608;28;20037;-58
2023/12/16 03:59:41;;;;;;;19.70;3.75;;;7.30;99.90;;;;;;5001767;28;20125;-59
2023/12/16 04:02:33;;;;;;;14.43;3.70;;;7.30;99.90;;;;;;5003885;28;20161;-59
2023/12/16 04:04:58;;;;;;;16.00;3.80;;;7.30;99.90;;;;;;5018278;28;20056;-59
2023/12/16 04:07:24;;;;;;;13.25;2.92;;;7.30;99.90;;;;;;5003957;28;20045;-59
2023/12/16 04:09:50;;;;;;;17.58;4.35;;;7.20;99.90;;;;;;4997949;28;20045;-59
2023/12/16 04:12:15;;;;;;;20.15;3.38;;;7.20;99.90;;;;;;5002748;28;20042;-59
2023/12/16 04:14:41;;;;;;;16.20;3.38;;;7.20;99.90;;;;;;5003759;28;20560;-59
2023/12/16 04:17:07;;;;;;;19.23;4.70;;;7.20;99.90;;;;;;4989033;28;20080;-59
2023/12/16 04:19:33;;;;;;;16.33;3.53;;;7.10;99.90;;;;;;5004889;28;20171;-59
2023/12/16 04:21:59;;;;;;;18.33;3.90;;;7.10;99.90;;;;;;5006138;28;20132;-59
2023/12/16 04:24:25;;;;;;;19.90;4.05;;;7.10;99.90;;;;;;5003791;28;20042;-58
2023/12/16 04:26:50;;;;;;;13.25;3.42;;;7.10;99.90;;;;;;4989557;28;20049;-59
2023/12/16 04:29:16;;;;;;;17.77;3.63;;;7.10;99.90;;;;;;5007197;28;20049;-59
2023/12/16 04:31:42;;;;;;;18.83;4.35;;;7.10;99.90;;;;;;5002442;28;20041;-59
2023/12/16 04:34:08;;;;;;;19.25;4.03;;;7.10;99.90;;;;;;5006132;28;20112;-59
2023/12/16 04:36:33;;;;;;;15.18;4.00;;;7.10;99.90;;;;;;5006310;28;20041;-59
2023/12/16 04:39:07;;;;;;;25.02;4.60;;;7.10;99.90;;;;;;4986344;28;20046;-59
2023/12/16 04:41:33;;;;;;;21.23;3.85;;;7.10;99.90;;;;;;5003190;28;20042;-59
2023/12/16 04:43:59;;;;;;;13.05;3.97;;;7.00;99.90;;;;;;4982641;28;20665;-59
2023/12/16 04:46:25;;;;;;;23.02;3.47;;;7.00;99.90;;;;;;5003932;28;20128;-59
2023/12/16 04:48:51;;;;;;;21.58;4.65;;;7.00;99.90;;;;;;4988945;28;20188;-59
2023/12/16 04:51:17;;;;;;;17.33;3.83;;;7.00;99.90;;;;;;5006026;28;20125;-59
2023/12/16 04:53:42;;;;;;;16.65;3.95;;;7.00;99.90;;;;;;5005802;28;20053;-59
2023/12/16 04:56:11;;;;;;;17.90;4.03;;;7.00;99.90;;;;;;5005487;28;20045;-59
2023/12/16 04:58:37;;;;;;;18.45;4.03;;;7.00;99.90;;;;;;5004054;28;20033;-59
2023/12/16 05:01:03;;;;;;;18.92;4.40;;;7.00;99.90;;;;;;5006033;28;20045;-59
2023/12/16 05:03:31;;;;;;;19.58;4.45;;;7.00;99.90;;;;;;5004946;28;20046;-59
2023/12/16 05:05:56;;;;;;;20.52;4.53;;;7.00;99.90;;;;;;5005419;28;20052;-59
2023/12/16 05:08:22;;;;;;;18.30;4.03;;;7.00;99.90;;;;;;5002783;28;20049;-59
2023/12/16 05:10:48;;;;;;;20.17;4.82;;;7.00;99.90;;;;;;5003371;28;20454;-59
2023/12/16 05:13:17;;;;;;;20.75;4.88;;;7.00;99.90;;;;;;5006718;28;20034;-59
2023/12/16 05:15:43;;;;;;;19.15;4.22;;;7.10;99.90;;;;;;5002801;28;20067;-59
2023/12/16 05:18:09;;;;;;;22.10;5.68;;;7.10;99.90;;;;;;5000079;28;20662;-59
2023/12/16 05:20:34;;;;;;;24.60;4.82;;;7.10;99.90;;;;;;4981304;28;20044;-59
2023/12/16 05:23:02;;;;;;;19.85;4.45;;;7.20;99.90;;;;;;4986687;28;20551;-59
2023/12/16 05:25:29;;;;;;;23.98;6.47;;;7.20;99.90;;;;;;5003021;28;20049;-59
2023/12/16 05:27:55;;;;;;;24.67;5.88;;;7.20;99.90;;;;;;5007110;28;20413;-59
2023/12/16 05:30:21;;;;;;;21.80;5.30;;;7.20;99.90;;;;;;4998930;28;20076;-59
2023/12/16 05:32:47;;;;;;;24.55;5.85;;;7.30;99.90;;;;;;5002027;28;20069;-61
2023/12/16 05:35:13;;;;;;;24.40;5.60;;;7.30;99.90;;;;;;4999733;28;20042;-61
2023/12/16 05:37:40;;;;;;;24.60;6.13;;;7.30;99.90;;;;;;5003066;28;20116;-61
2023/12/16 05:40:06;;;;;;;20.65;5.40;;;7.30;99.90;;;;;;5002440;28;20034;-61
2023/12/16 05:42:31;;;;;;;22.48;5.70;;;7.30;99.90;;;;;;5003025;28;20132;-61
2023/12/16 05:44:57;;;;;;;24.10;5.40;;;7.40;99.90;;;;;;4989430;28;22357;-61
2023/12/16 05:47:23;;;;;;;29.88;6.85;;;7.40;99.90;;;;;;4985607;28;20041;-61
2023/12/16 05:49:50;;;;;;;22.88;6.15;;;7.40;99.90;;;;;;5005366;28;20042;-61
2023/12/16 05:52:15;;;;;;;30.73;6.63;;;7.40;99.90;;;;;;5002644;28;20033;-61
2023/12/16 05:54:41;;;;;;;26.45;7.00;;;7.40;99.90;;;;;;4984405;28;20539;-61
2023/12/16 05:57:07;;;;;;;25.58;7.03;;;7.50;99.90;;;;;;5003925;28;20037;-61
2023/12/16 05:59:34;;;;;;;24.50;6.93;;;7.60;99.90;;;;;;5004889;28;20042;-61
2023/12/16 06:02:00;;;;;;;29.48;7.13;;;7.60;99.90;;;;;;4984670;28;20940;-61
2023/12/16 06:04:26;;;;;;;30.13;7.47;;;7.60;99.90;;;;;;5005354;28;20139;-61
2023/12/16 06:06:51;;;;;;;30.95;7.85;;;7.60;99.90;;;;;;5002880;28;20077;-61
2023/12/16 06:09:17;;;;;;;27.83;7.18;;;7.60;99.90;;;;;;5002343;28;20057;-61
2023/12/16 06:11:43;;;;;;;21.42;6.95;;;7.60;99.90;;;;;;4997735;28;20548;-61
2023/12/16 06:14:09;;;;;;;23.25;6.78;;;7.70;99.90;;;;;;4984156;28;20046;-61
2023/12/16 06:16:34;;;;;;;36.20;8.07;;;7.70;99.90;;;;;;5002457;28;20397;-61
2023/12/16 06:19:02;;;;;;;35.83;7.97;;;7.70;99.90;;;;;;4985703;28;20128;-61
2023/12/16 06:21:29;;;;;;;28.33;8.90;;;7.70;99.90;;;;;;5004041;28;20445;-61
2023/12/16 06:23:58;;;;;;;31.27;8.98;;;7.70;99.90;;;;;;4987962;28;20052;-61
2023/12/16 06:26:24;;;;;;;26.48;9.40;;;7.70;99.90;;;;;;5002776;28;20030;-61
2023/12/16 06:28:49;;;;;;;25.77;7.90;;;7.70;99.90;;;;;;4980978;28;20133;-61
2023/12/16 06:31:18;;;;;;;26.90;7.88;;;7.70;99.90;;;;;;5000576;28;20084;-62
2023/12/16 06:33:45;;;;;;;29.70;8.32;;;7.70;99.90;;;;;;4999108;28;20058;-61
2023/12/16 06:36:11;;;;;;;36.25;9.48;;;7.70;99.90;;;;;;4986648;28;20030;-61
2023/12/16 06:38:37;;;;;;;34.40;9.18;;;7.70;99.90;;;;;;5003807;28;20038;-61
2023/12/16 06:41:04;;;;;;;31.65;8.88;;;7.70;99.90;;;;;;5006298;28;20038;-61
2023/12/16 06:43:30;;;;;;;33.47;10.73;;;7.70;99.90;;;;;;5000986;28;20489;-60
2023/12/16 06:45:55;;;;;;;29.73;8.82;;;7.70;99.90;;;;;;5002131;28;20050;-59
2023/12/16 06:48:22;;;;;;;30.85;9.35;;;7.70;99.90;;;;;;4998300;28;20420;-59
2023/12/16 06:50:49;;;;;;;27.05;8.07;;;7.80;99.90;;;;;;5003744;28;20531;-59
2023/12/16 06:53:15;;;;;;;33.13;9.65;;;7.80;99.90;;;;;;5000645;28;20053;-59
2023/12/16 06:55:41;;;;;;;32.97;8.73;;;7.80;99.90;;;;;;5003360;28;20444;-59
2023/12/16 06:58:07;;;;;;;32.33;10.00;;;7.80;99.90;;;;;;4983246;28;20042;-59
2023/12/16 07:00:33;;;;;;;33.78;9.57;;;7.80;99.90;;;;;;5002735;28;20649;-59
2023/12/16 07:02:59;;;;;;;35.28;10.27;;;7.90;99.90;;;;;;5000026;28;20049;-59
2023/12/16 07:05:25;;;;;;;32.97;9.23;;;7.90;99.90;;;;;;4998867;28;20049;-58
2023/12/16 07:07:51;;;;;;;42.35;10.52;;;7.90;99.90;;;;;;4981303;28;20480;-59
2023/12/16 07:10:17;;;;;;;30.58;8.77;;;7.90;99.90;;;;;;4969541;28;21212;-59
2023/12/16 07:12:42;;;;;;;37.78;10.05;;;8.00;99.90;;;;;;5002781;28;20409;-59
2023/12/16 07:15:08;;;;;;;33.97;9.48;;;8.00;99.90;;;;;;4983881;28;20037;-59
2023/12/16 07:17:34;;;;;;;38.65;10.98;;;8.00;99.90;;;;;;4984587;28;20049;-59
2023/12/16 07:20:00;;;;;;;33.17;9.15;;;8.00;99.90;;;;;;4996786;28;20026;-61
2023/12/16 07:22:29;;;;;;;40.28;8.55;;;8.00;99.90;;;;;;5000821;28;20046;-61
2023/12/16 07:24:55;;;;;;;35.08;10.30;;;8.00;99.90;;;;;;5020243;28;20050;-61
2023/12/16 07:27:22;;;;;;;46.00;9.20;;;8.10;99.90;;;;;;4999626;28;20042;-61
2023/12/16 07:29:48;;;;;;;33.80;9.10;;;8.10;99.90;;;;;;4965847;28;20101;-61
2023/12/16 07:32:14;;;;;;;34.88;8.48;;;8.10;99.90;;;;;;4998132;28;20561;-61
2023/12/16 07:34:40;;;;;;;36.33;8.57;;;8.10;99.90;;;;;;5015591;28;20073;-61
2023/12/16 07:37:06;;;;;;;39.28;9.45;;;8.20;99.90;;;;;;4983085;28;20069;-61
2023/12/16 07:39:32;;;;;;;39.63;8.52;;;8.20;99.90;;;;;;4983087;28;20068;-61
2023/12/16 07:41:57;;;;;;;46.28;8.98;;;8.20;99.90;;;;;;4997720;28;20050;-61
2023/12/16 07:44:24;;;;;;;41.35;10.25;;;8.30;99.90;;;;;;4983794;28;20521;-63
2023/12/16 07:46:50;;;;;;;36.58;9.35;;;8.30;99.90;;;;;;5002858;28;20081;-61
2023/12/16 07:49:17;;;;;;;32.72;8.68;;;8.30;99.90;;;;;;4988167;28;20981;-61
2023/12/16 07:51:43;;;;;;;45.33;9.93;;;8.30;99.90;;;;;;5002934;28;20086;-61
2023/12/16 07:54:11;;;;;;;40.78;10.10;;;8.30;99.90;;;;;;5006178;28;20400;-61
2023/12/16 07:56:36;;;;;;;41.38;9.45;;;8.30;99.90;;;;;;5007358;28;20053;-61
2023/12/16 07:59:02;;;;;;;34.53;8.68;;;8.40;99.90;;;;;;5006239;28;20038;-61
2023/12/16 08:01:28;;;;;;;47.00;10.07;;;8.40;99.90;;;;;;4988843;28;20131;-61
2023/12/16 08:03:54;;;;;;;36.22;8.60;;;8.40;99.90;;;;;;4987406;28;20030;-61
2023/12/16 08:06:20;;;;;;;43.65;8.48;;;8.50;99.90;;;;;;4992579;28;20095;-61
2023/12/16 08:08:46;;;;;;;37.78;8.63;;;8.50;99.90;;;;;;5003050;28;20041;-62
2023/12/16 08:11:12;;;;;;;39.00;9.65;;;8.50;99.90;;;;;;4990383;28;20044;-61
2023/12/16 08:13:38;;;;;;;47.72;9.60;;;8.60;99.90;;;;;;5006190;28;20483;-61
2023/12/16 08:16:04;;;;;;;50.20;9.10;;;8.60;99.90;;;;;;4987672;28;20046;-61
2023/12/16 08:18:31;;;;;;;39.88;9.27;;;8.60;99.90;;;;;;5004858;28;20033;-61
2023/12/16 08:20:57;;;;;;;41.22;10.00;;;8.60;99.90;;;;;;4981714;28;20408;-61
2023/12/16 08:23:23;;;;;;;40.95;9.15;;;8.60;99.90;;;;;;4998032;28;20041;-62
2023/12/16 08:25:48;;;;;;;34.97;7.90;;;8.60;99.90;;;;;;4997798;28;20041;-61
2023/12/16 08:28:14;;;;;;;41.03;7.93;;;8.60;99.90;;;;;;5002275;28;20052;-61
2023/12/16 08:30:40;;;;;;;38.55;9.07;;;8.70;99.90;;;;;;5005709;28;20038;-62
2023/12/16 08:33:06;;;;;;;35.75;9.02;;;8.70;99.90;;;;;;5008901;28;20053;-61
2023/12/16 08:35:34;;;;;;;39.72;8.15;;;8.70;99.90;;;;;;4991775;28;20400;-59
2023/12/16 08:38:01;;;;;;;47.90;8.75;;;8.70;99.90;;;;;;4996245;28;20055;-59
2023/12/16 08:40:27;;;;;;;42.53;8.90;;;8.70;99.90;;;;;;5014152;28;20446;-59
2023/12/16 08:42:56;;;;;;;47.10;8.30;;;8.70;99.90;;;;;;5008473;28;20042;-59
2023/12/16 08:45:21;;;;;;;40.90;9.18;;;8.70;99.90;;;;;;5012207;28;20046;-59
2023/12/16 08:47:47;;;;;;;43.95;9.68;;;8.70;99.90;;;;;;5009094;28;20049;-59
2023/12/16 08:50:13;;;;;;;37.33;8.40;;;8.70;99.90;;;;;;5007494;28;20058;-59
2023/12/16 08:52:38;;;;;;;41.53;9.50;;;8.70;99.90;;;;;;5005619;28;20073;-58
2023/12/16 08:55:05;;;;;;;43.97;8.07;;;8.70;99.90;;;;;;4991238;28;20501;-59
2023/12/16 08:57:32;;;;;;;48.17;9.73;;;8.80;99.90;;;;;;4990001;28;20516;-59
2023/12/16 08:59:58;;;;;;;50.83;10.40;;;8.80;99.90;;;;;;5007248;28;20073;-59
2023/12/16 09:02:24;;;;;;;42.22;8.27;;;8.80;99.90;;;;;;5008162;28;20041;-59
2023/12/16 09:04:50;;;;;;;42.15;8.77;;;8.80;99.90;;;;;;4992255;28;20046;-59
2023/12/16 09:07:17;;;;;;;41.47;10.07;;;8.80;99.90;;;;;;5007198;28;20136;-59
2023/12/16 09:09:44;;;;;;;44.70;8.60;;;8.80;99.90;;;;;;5007710;28;20042;-59
2023/12/16 09:12:11;;;;;;;46.03;9.38;;;8.80;99.90;;;;;;5007504;28;20042;-59
2023/12/16 09:14:37;;;;;;;34.28;8.27;;;8.80;99.90;;;;;;4991341;28;20081;-59
2023/12/16 09:17:03;;;;;;;38.53;9.82;;;8.80;99.90;;;;;;4991064;28;20030;-59
2023/12/16 09:19:29;;;;;;;48.55;10.15;;;8.80;99.90;;;;;;5008302;28;20041;-59
2023/12/16 09:21:55;;;;;;;44.95;8.63;;;8.80;99.90;;;;;;5006015;28;20092;-59
2023/12/16 09:24:21;;;;;;;41.15;9.02;;;8.80;99.90;;;;;;5008947;28;20077;-59
2023/12/16 09:26:47;;;;;;;38.42;8.98;;;8.80;99.90;;;;;;4990865;28;20053;-58
2023/12/16 09:29:13;;;;;;;37.13;9.70;;;8.80;99.90;;;;;;4991767;28;20042;-59
2023/12/16 09:31:39;;;;;;;30.33;7.95;;;8.80;99.90;;;;;;5005566;28;20096;-59
2023/12/16 09:34:04;;;;;;;42.80;9.38;;;8.80;99.90;;;;;;5008113;28;20053;-58
2023/12/16 09:36:31;;;;;;;51.88;9.38;;;8.80;99.90;;;;;;5008144;28;20037;-59
2023/12/16 09:38:57;;;;;;;42.22;8.10;;;8.80;99.90;;;;;;5010524;28;20465;-59
2023/12/16 09:41:25;;;;;;;42.42;9.13;;;8.90;99.90;;;;;;5005620;28;20126;-58
2023/12/16 09:43:53;;;;;;;44.47;10.32;;;8.90;99.90;;;;;;4997236;28;20049;-59
2023/12/16 09:46:20;;;;;;;42.90;8.48;;;8.90;99.90;;;;;;5007152;28;20053;-59
2023/12/16 09:48:46;;;;;;;51.05;9.90;;;8.90;99.90;;;;;;5010219;28;20306;-59
2023/12/16 09:51:13;;;;;;;42.75;9.23;;;8.90;99.90;;;;;;5007137;28;20121;-59
2023/12/16 09:53:39;;;;;;;54.70;9.65;;;8.90;99.90;;;;;;5009188;28;20038;-59
2023/12/16 09:56:06;;;;;;;37.22;10.23;;;8.90;99.90;;;;;;4990054;28;20073;-58
2023/12/16 09:58:34;;;;;;;47.65;10.30;;;9.00;99.90;;;;;;5006102;28;20045;-58
2023/12/16 10:01:02;;;;;;;50.30;9.80;;;9.00;99.90;;;;;;5004445;28;20042;-58
2023/12/16 10:03:29;;;;;;;56.50;11.23;;;9.00;99.90;;;;;;5004246;28;20405;-59
2023/12/16 10:05:55;;;;;;;59.83;10.00;;;9.00;99.90;;;;;;5000951;28;20045;-58
2023/12/16 10:08:20;;;;;;;46.15;10.88;;;9.00;99.90;;;;;;4998690;28;20461;-59
2023/12/16 10:10:46;;;;;;;43.20;10.10;;;9.00;99.90;;;;;;5006963;28;20049;-59
2023/12/16 10:13:12;;;;;;;34.10;8.40;;;9.00;99.90;;;;;;5005900;28;20037;-59
2023/12/16 10:15:40;;;;;;;38.45;10.00;;;9.00;99.90;;;;;;5005153;28;20050;-59
2023/12/16 10:18:06;;;;;;;44.55;10.68;;;8.90;99.90;;;;;;5007034;28;20042;-58
2023/12/16 10:20:31;;;;;;;52.45;13.57;;;8.90;99.90;;;;;;4999055;28;20120;-59
2023/12/16 10:23:01;;;;;;;42.90;12.20;;;8.90;99.90;;;;;;4998470;28;20129;-59
2023/12/16 10:25:30;;;;;;;58.05;13.38;;;8.90;99.90;;;;;;4992428;28;21057;-59
2023/12/16 10:28:03;;;;;;;43.45;11.13;;;9.00;99.90;;;;;;4993089;28;20058;-59
2023/12/16 10:30:29;;;;;;;37.15;11.63;;;9.00;99.90;;;;;;4998164;28;20124;-59
2023/12/16 10:32:56;;;;;;;42.15;11.27;;;9.00;99.90;;;;;;4997635;28;20217;-58
2023/12/16 10:35:23;;;;;;;33.95;10.68;;;9.00;99.90;;;;;;5000148;28;20042;-59
2023/12/16 10:37:50;;;;;;;33.13;11.55;;;9.10;99.90;;;;;;4989899;28;20046;-59
2023/12/16 10:40:17;;;;;;;32.33;10.82;;;9.10;99.90;;;;;;5000268;28;20041;-59
2023/12/16 10:42:43;;;;;;;26.70;11.00;;;9.20;99.90;;;;;;4998283;28;20049;-59
2023/12/16 10:45:13;;;;;;;27.00;10.30;;;9.30;99.90;;;;;;5000703;28;20072;-59
2023/12/16 10:47:39;;;;;;;32.17;10.25;;;9.30;99.90;;;;;;5003930;28;20046;-59
2023/12/16 10:50:09;;;;;;;23.27;10.35;;;9.40;99.90;;;;;;5001852;28;20048;-59
2023/12/16 10:52:42;;;;;;;24.90;9.60;;;9.40;99.90;;;;;;5002168;28;20049;-59
2023/12/16 10:55:14;;;;;;;24.85;10.52;;;9.50;99.90;;;;;;4999841;28;20038;-59
2023/12/16 10:57:47;;;;;;;29.20;10.55;;;9.50;99.90;;;;;;5002639;28;20063;-59
2023/12/16 11:00:26;;;;;;;28.27;11.97;;;9.50;99.90;;;;;;5001320;28;20141;-59
2023/12/16 11:03:03;;;;;;;33.33;11.85;;;9.50;99.90;;;;;;5015629;28;20046;-58
2023/12/16 11:05:31;;;;;;;28.65;11.43;;;9.50;99.90;;;;;;5003472;28;20049;-59
2023/12/16 11:07:57;;;;;;;30.88;11.27;;;9.50;99.90;;;;;;5001586;28;20054;-59
2023/12/16 11:10:24;;;;;;;32.72;13.55;;;9.50;99.90;;;;;;5002451;28;20049;-59
2023/12/16 11:12:52;;;;;;;32.75;11.80;;;9.60;99.90;;;;;;4983731;28;20046;-59
2023/12/16 11:15:20;;;;;;;28.80;11.93;;;9.60;99.90;;;;;;5001030;28;20046;-59
2023/12/16 11:17:59;;;;;;;27.92;12.45;;;9.60;99.90;;;;;;4986056;28;20049;-59
2023/12/16 11:20:53;;;;;;;30.38;12.23;;;9.60;99.90;;;;;;5002742;28;20104;-59
2023/12/16 11:23:19;;;;;;;;;;;9.60;99.90;;;;;;4997620;28;20141;-59
2023/12/16 11:25:49;;;;;;;30.48;11.35;;;9.60;99.90;;;;;;4986054;28;20012;-59
2023/12/16 11:28:15;;;;;;;36.63;14.32;;;9.50;99.90;;;;;;4997910;28;20129;-59
2023/12/16 11:30:41;;;;;;;31.52;12.43;;;9.50;99.90;;;;;;4999581;28;20037;-61
2023/12/16 11:33:07;;;;;;;33.33;12.52;;;9.60;99.90;;;;;;4965234;28;20123;-61
2023/12/16 11:35:36;;;;;;;33.00;12.57;;;9.60;99.90;;;;;;4999033;28;20590;-61
2023/12/16 11:38:09;;;;;;;25.50;11.45;;;9.60;99.90;;;;;;4982585;28;20121;-61
2023/12/16 11:40:51;;;;;;;35.58;11.88;;;9.70;99.90;;;;;;5001031;28;20030;-61
2023/12/16 11:43:17;;;;;;;35.85;11.02;;;9.70;99.90;;;;;;4993590;28;20053;-61
2023/12/16 11:45:45;;;;;;;28.70;10.82;;;9.80;99.90;;;;;;4998058;28;20050;-61
2023/12/16 11:48:14;;;;;;;29.08;11.48;;;9.80;99.90;;;;;;4982613;28;20045;-61
2023/12/16 11:50:42;;;;;;;22.38;9.88;;;9.70;99.90;;;;;;4992846;28;20061;-61
2023/12/16 11:53:11;;;;;;;26.20;10.57;;;9.80;99.90;;;;;;4979315;28;20042;-61
2023/12/16 11:55:38;;;;;;;22.77;10.13;;;9.80;99.90;;;;;;5002056;28;20457;-61
2023/12/16 11:58:04;;;;;;;30.67;10.65;;;9.80;99.90;;;;;;4999449;28;20045;-61
2023/12/16 12:00:30;;;;;;;28.52;11.73;;;9.80;99.90;;;;;;5000533;28;20042;-61
2023/12/16 12:02:59;;;;;;;27.17;11.57;;;9.80;99.90;;;;;;5001532;28;20046;-61
2023/12/16 12:05:26;;;;;;;23.75;11.02;;;9.80;99.90;;;;;;4984782;28;20041;-61
2023/12/16 12:07:52;;;;;;;29.13;11.85;;;9.90;99.90;;;;;;5001367;28;20041;-61
2023/12/16 12:10:17;;;;;;;25.83;11.15;;;9.90;99.90;;;;;;4981605;28;20812;-61
2023/12/16 12:12:43;;;;;;;31.27;11.23;;;9.90;99.90;;;;;;4985689;28;20048;-62
2023/12/16 12:15:10;;;;;;;30.90;13.27;;;9.90;99.90;;;;;;4995483;28;20093;-61
2023/12/16 12:17:36;;;;;;;30.00;13.27;;;9.90;99.90;;;;;;4978430;28;20929;-61
2023/12/16 12:20:03;;;;;;;28.88;13.10;;;10.00;99.90;;;;;;4998925;28;20053;-61
2023/12/16 12:22:30;;;;;;;27.75;11.20;;;9.90;99.90;;;;;;4999024;28;20045;-61
2023/12/16 12:24:56;;;;;;;33.78;13.15;;;10.00;99.90;;;;;;4984376;28;20121;-61
2023/12/16 12:27:22;;;;;;;25.08;12.65;;;10.00;99.90;;;;;;4985364;28;20049;-61
2023/12/16 12:29:59;;;;;;;28.25;11.30;;;10.00;99.90;;;;;;4996364;28;20053;-61
2023/12/16 12:32:26;;;;;;;26.73;11.23;;;10.00;99.90;;;;;;5001406;28;20042;-61
2023/12/16 12:34:59;;;;;;;26.17;11.30;;;10.00;99.90;;;;;;5006135;28;20046;-61
2023/12/16 12:37:26;;;;;;;22.13;9.30;;;10.00;99.90;;;;;;5005435;28;20044;-61
2023/12/16 12:39:52;;;;;;;24.13;10.20;;;10.00;99.90;;;;;;5004479;28;20519;-61
2023/12/16 12:42:18;;;;;;;19.17;9.98;;;10.00;99.90;;;;;;5008964;28;20059;-61